sensor_id;sensor_type;location;lat;lon;timestamp;P1;durP1;ratioP1;P2;durP2;ratioP2
28311;SDS011;15572;48.810;9.148;2022-07-12T00:04:54;5.10;;;4.37;;
28311;SDS011;15572;48.810;9.148;2022-07-12T00:09:50;5.20;;;4.33;;
28311;SDS011;15572;48.810;9.148;2022-07-12T00:14:47;4.93;;;4.43;;
28311;SDS011;15572;48.810;9.148;2022-07-12T00:19:44;6.17;;;4.27;;
28311;SDS011;15572;48.810;9.148;2022-07-12T00:24:42;5.67;;;4.20;;
28311;SDS011;15572;48.810;9.148;2022-07-12T00:29:39;5.80;;;4.57;;
28311;SDS011;15572;48.810;9.148;2022-07-12T00:34:35;5.60;;;4.30;;
28311;SDS011;15572;48.810;9.148;2022-07-12T00:39:31;6.27;;;4.37;;
28311;SDS011;15572;48.810;9.148;2022-07-12T00:44:29;5.50;;;4.30;;
28311;SDS011;15572;48.810;9.148;2022-07-12T00:49:28;4.63;;;4.20;;
28311;SDS011;15572;48.810;9.148;2022-07-12T00:54:26;7.47;;;4.57;;
28311;SDS011;15572;48.810;9.148;2022-07-12T00:59:23;5.00;;;4.20;;
28311;SDS011;15572;48.810;9.148;2022-07-12T01:04:21;8.23;;;4.73;;
28311;SDS011;15572;48.810;9.148;2022-07-12T01:09:17;4.90;;;4.40;;
28311;SDS011;15572;48.810;9.148;2022-07-12T01:14:14;4.93;;;4.43;;
28311;SDS011;15572;48.810;9.148;2022-07-12T01:19:10;4.73;;;4.27;;
28311;SDS011;15572;48.810;9.148;2022-07-12T01:24:14;4.97;;;4.47;;
28311;SDS011;15572;48.810;9.148;2022-07-12T01:29:11;4.60;;;4.03;;
28311;SDS011;15572;48.810;9.148;2022-07-12T01:34:08;5.63;;;4.20;;
28311;SDS011;15572;48.810;9.148;2022-07-12T01:39:05;5.10;;;4.60;;
28311;SDS011;15572;48.810;9.148;2022-07-12T01:44:03;5.17;;;4.20;;
28311;SDS011;15572;48.810;9.148;2022-07-12T01:49:00;5.20;;;4.70;;
28311;SDS011;15572;48.810;9.148;2022-07-12T01:53:57;6.43;;;4.10;;
28311;SDS011;15572;48.810;9.148;2022-07-12T01:58:53;5.13;;;3.97;;
28311;SDS011;15572;48.810;9.148;2022-07-12T02:03:51;4.37;;;3.97;;
28311;SDS011;15572;48.810;9.148;2022-07-12T02:08:47;5.40;;;4.50;;
28311;SDS011;15572;48.810;9.148;2022-07-12T02:13:44;5.37;;;4.20;;
28311;SDS011;15572;48.810;9.148;2022-07-12T02:18:40;5.50;;;4.30;;
28311;SDS011;15572;48.810;9.148;2022-07-12T02:23:38;4.33;;;3.60;;
28311;SDS011;15572;48.810;9.148;2022-07-12T02:28:35;4.73;;;3.97;;
28311;SDS011;15572;48.810;9.148;2022-07-12T02:33:31;4.43;;;3.90;;
28311;SDS011;15572;48.810;9.148;2022-07-12T02:38:28;4.67;;;3.90;;
28311;SDS011;15572;48.810;9.148;2022-07-12T02:43:26;4.70;;;4.20;;
28311;SDS011;15572;48.810;9.148;2022-07-12T02:48:24;4.73;;;3.90;;
28311;SDS011;15572;48.810;9.148;2022-07-12T02:53:20;5.07;;;4.27;;
28311;SDS011;15572;48.810;9.148;2022-07-12T02:58:17;4.50;;;4.10;;
28311;SDS011;15572;48.810;9.148;2022-07-12T03:03:15;4.53;;;4.13;;
28311;SDS011;15572;48.810;9.148;2022-07-12T03:08:11;5.50;;;4.50;;
28311;SDS011;15572;48.810;9.148;2022-07-12T03:13:08;5.03;;;3.90;;
28311;SDS011;15572;48.810;9.148;2022-07-12T03:18:05;4.67;;;4.17;;
28311;SDS011;15572;48.810;9.148;2022-07-12T03:23:03;5.33;;;4.60;;
28311;SDS011;15572;48.810;9.148;2022-07-12T03:27:59;4.73;;;4.27;;
28311;SDS011;15572;48.810;9.148;2022-07-12T03:32:55;4.30;;;3.90;;
28311;SDS011;15572;48.810;9.148;2022-07-12T03:37:52;5.03;;;4.30;;
28311;SDS011;15572;48.810;9.148;2022-07-12T03:42:51;4.80;;;4.30;;
28311;SDS011;15572;48.810;9.148;2022-07-12T03:47:48;4.53;;;4.13;;
28311;SDS011;15572;48.810;9.148;2022-07-12T03:52:44;5.10;;;3.67;;
28311;SDS011;15572;48.810;9.148;2022-07-12T03:57:41;4.00;;;3.63;;
28311;SDS011;15572;48.810;9.148;2022-07-12T04:02:39;4.43;;;4.03;;
28311;SDS011;15572;48.810;9.148;2022-07-12T04:07:36;7.70;;;4.47;;
28311;SDS011;15572;48.810;9.148;2022-07-12T04:12:33;4.47;;;4.00;;
28311;SDS011;15572;48.810;9.148;2022-07-12T04:17:30;4.90;;;4.30;;
28311;SDS011;15572;48.810;9.148;2022-07-12T04:22:28;6.53;;;4.20;;
28311;SDS011;15572;48.810;9.148;2022-07-12T04:27:24;5.50;;;4.40;;
28311;SDS011;15572;48.810;9.148;2022-07-12T04:32:22;6.90;;;4.50;;
28311;SDS011;15572;48.810;9.148;2022-07-12T04:37:18;6.53;;;4.40;;
28311;SDS011;15572;48.810;9.148;2022-07-12T04:42:16;5.50;;;4.13;;
28311;SDS011;15572;48.810;9.148;2022-07-12T04:47:13;4.73;;;4.23;;
28311;SDS011;15572;48.810;9.148;2022-07-12T04:52:09;4.60;;;4.17;;
28311;SDS011;15572;48.810;9.148;2022-07-12T04:57:06;5.00;;;4.20;;
28311;SDS011;15572;48.810;9.148;2022-07-12T05:02:04;5.00;;;4.30;;
28311;SDS011;15572;48.810;9.148;2022-07-12T05:07:00;6.93;;;4.20;;
28311;SDS011;15572;48.810;9.148;2022-07-12T05:11:57;4.80;;;4.30;;
28311;SDS011;15572;48.810;9.148;2022-07-12T05:16:53;7.83;;;4.70;;
28311;SDS011;15572;48.810;9.148;2022-07-12T05:21:51;4.80;;;4.37;;
28311;SDS011;15572;48.810;9.148;2022-07-12T05:26:48;5.83;;;4.63;;
28311;SDS011;15572;48.810;9.148;2022-07-12T05:31:44;5.67;;;4.30;;
28311;SDS011;15572;48.810;9.148;2022-07-12T05:36:41;6.43;;;4.30;;
28311;SDS011;15572;48.810;9.148;2022-07-12T05:41:38;6.20;;;4.60;;
28311;SDS011;15572;48.810;9.148;2022-07-12T05:46:35;5.37;;;4.23;;
28311;SDS011;15572;48.810;9.148;2022-07-12T05:51:32;5.17;;;3.87;;
28311;SDS011;15572;48.810;9.148;2022-07-12T05:56:48;5.10;;;3.90;;
28311;SDS011;15572;48.810;9.148;2022-07-12T06:01:46;5.03;;;4.00;;
28311;SDS011;15572;48.810;9.148;2022-07-12T06:06:42;5.57;;;3.93;;
28311;SDS011;15572;48.810;9.148;2022-07-12T06:11:39;5.50;;;4.27;;
28311;SDS011;15572;48.810;9.148;2022-07-12T06:16:37;8.33;;;4.30;;
28311;SDS011;15572;48.810;9.148;2022-07-12T06:21:34;8.57;;;4.07;;
28311;SDS011;15572;48.810;9.148;2022-07-12T06:26:30;4.80;;;4.00;;
28311;SDS011;15572;48.810;9.148;2022-07-12T06:31:27;2.70;;;2.50;;
28311;SDS011;15572;48.810;9.148;2022-07-12T06:36:25;3.40;;;2.80;;
28311;SDS011;15572;48.810;9.148;2022-07-12T06:41:21;4.30;;;2.80;;
28311;SDS011;15572;48.810;9.148;2022-07-12T06:46:19;3.57;;;2.53;;
28311;SDS011;15572;48.810;9.148;2022-07-12T06:51:16;2.77;;;2.40;;
28311;SDS011;15572;48.810;9.148;2022-07-12T06:56:14;2.77;;;2.53;;
28311;SDS011;15572;48.810;9.148;2022-07-12T07:01:10;2.95;;;2.53;;
28311;SDS011;15572;48.810;9.148;2022-07-12T07:06:07;2.63;;;2.40;;
28311;SDS011;15572;48.810;9.148;2022-07-12T07:11:03;2.80;;;2.35;;
28311;SDS011;15572;48.810;9.148;2022-07-12T07:16:01;2.22;;;1.60;;
28311;SDS011;15572;48.810;9.148;2022-07-12T07:20:58;2.80;;;1.50;;
28311;SDS011;15572;48.810;9.148;2022-07-12T07:25:54;1.58;;;1.20;;
28311;SDS011;15572;48.810;9.148;2022-07-12T07:30:51;1.05;;;1.00;;
28311;SDS011;15572;48.810;9.148;2022-07-12T07:35:52;1.00;;;0.88;;
28311;SDS011;15572;48.810;9.148;2022-07-12T07:40:49;1.55;;;0.90;;
28311;SDS011;15572;48.810;9.148;2022-07-12T07:45:45;1.52;;;0.60;;
28311;SDS011;15572;48.810;9.148;2022-07-12T07:50:42;3.63;;;0.90;;
28311;SDS011;15572;48.810;9.148;2022-07-12T07:55:40;1.40;;;0.90;;
28311;SDS011;15572;48.810;9.148;2022-07-12T08:00:36;1.10;;;0.77;;
28311;SDS011;15572;48.810;9.148;2022-07-12T08:05:33;5.20;;;0.80;;
28311;SDS011;15572;48.810;9.148;2022-07-12T08:10:29;0.60;;;0.60;;
28311;SDS011;15572;48.810;9.148;2022-07-12T08:15:27;2.78;;;0.90;;
28311;SDS011;15572;48.810;9.148;2022-07-12T08:20:24;0.77;;;0.77;;
28311;SDS011;15572;48.810;9.148;2022-07-12T08:25:21;2.65;;;0.85;;
28311;SDS011;15572;48.810;9.148;2022-07-12T08:30:18;2.28;;;1.05;;
28311;SDS011;15572;48.810;9.148;2022-07-12T08:35:15;1.15;;;0.95;;
28311;SDS011;15572;48.810;9.148;2022-07-12T08:40:12;0.85;;;0.85;;
28311;SDS011;15572;48.810;9.148;2022-07-12T08:45:09;1.45;;;1.10;;
28311;SDS011;15572;48.810;9.148;2022-07-12T08:50:09;1.00;;;1.00;;
28311;SDS011;15572;48.810;9.148;2022-07-12T08:55:25;1.20;;;1.05;;
28311;SDS011;15572;48.810;9.148;2022-07-12T09:00:23;1.10;;;1.00;;
28311;SDS011;15572;48.810;9.148;2022-07-12T09:05:21;0.98;;;0.88;;
28311;SDS011;15572;48.810;9.148;2022-07-12T09:10:18;1.10;;;0.98;;
28311;SDS011;15572;48.810;9.148;2022-07-12T09:15:17;1.80;;;0.90;;
28311;SDS011;15572;48.810;9.148;2022-07-12T09:20:15;0.80;;;0.80;;
28311;SDS011;15572;48.810;9.148;2022-07-12T09:25:15;1.08;;;0.88;;
28311;SDS011;15572;48.810;9.148;2022-07-12T09:30:12;0.90;;;0.90;;
28311;SDS011;15572;48.810;9.148;2022-07-12T09:35:10;0.70;;;0.70;;
28311;SDS011;15572;48.810;9.148;2022-07-12T09:40:24;0.70;;;0.70;;
28311;SDS011;15572;48.810;9.148;2022-07-12T09:45:21;0.98;;;0.80;;
28311;SDS011;15572;48.810;9.148;2022-07-12T09:50:19;0.70;;;0.70;;
28311;SDS011;15572;48.810;9.148;2022-07-12T09:55:16;1.20;;;0.60;;
28311;SDS011;15572;48.810;9.148;2022-07-12T10:00:14;3.28;;;0.80;;
28311;SDS011;15572;48.810;9.148;2022-07-12T10:05:10;1.02;;;0.73;;
28311;SDS011;15572;48.810;9.148;2022-07-12T10:10:09;0.87;;;0.87;;
28311;SDS011;15572;48.810;9.148;2022-07-12T10:15:08;1.83;;;0.90;;
28311;SDS011;15572;48.810;9.148;2022-07-12T10:20:14;0.70;;;0.70;;
28311;SDS011;15572;48.810;9.148;2022-07-12T10:25:32;1.67;;;0.85;;
28311;SDS011;15572;48.810;9.148;2022-07-12T10:30:30;1.63;;;0.80;;
28311;SDS011;15572;48.810;9.148;2022-07-12T10:35:27;1.65;;;0.88;;
28311;SDS011;15572;48.810;9.148;2022-07-12T10:40:25;1.00;;;0.70;;
28311;SDS011;15572;48.810;9.148;2022-07-12T10:45:23;1.95;;;0.70;;
28311;SDS011;15572;48.810;9.148;2022-07-12T10:50:25;0.60;;;0.60;;
28311;SDS011;15572;48.810;9.148;2022-07-12T11:01:12;2.20;;;0.80;;
28311;SDS011;15572;48.810;9.148;2022-07-12T11:06:10;1.83;;;0.75;;
28311;SDS011;15572;48.810;9.148;2022-07-12T11:11:08;4.55;;;0.93;;
28311;SDS011;15572;48.810;9.148;2022-07-12T11:16:04;2.72;;;0.70;;
28311;SDS011;15572;48.810;9.148;2022-07-12T11:21:03;2.00;;;0.52;;
28311;SDS011;15572;48.810;9.148;2022-07-12T11:26:00;0.70;;;0.68;;
28311;SDS011;15572;48.810;9.148;2022-07-12T11:31:01;0.60;;;0.60;;
28311;SDS011;15572;48.810;9.148;2022-07-12T11:35:59;0.85;;;0.80;;
28311;SDS011;15572;48.810;9.148;2022-07-12T11:41:00;0.47;;;0.47;;
28311;SDS011;15572;48.810;9.148;2022-07-12T11:45:57;0.50;;;0.50;;
28311;SDS011;15572;48.810;9.148;2022-07-12T11:50:55;0.60;;;0.50;;
28311;SDS011;15572;48.810;9.148;2022-07-12T11:55:52;0.45;;;0.45;;
28311;SDS011;15572;48.810;9.148;2022-07-12T12:00:52;1.10;;;0.55;;
28311;SDS011;15572;48.810;9.148;2022-07-12T12:05:50;0.68;;;0.60;;
28311;SDS011;15572;48.810;9.148;2022-07-12T12:10:52;1.65;;;0.63;;
28311;SDS011;15572;48.810;9.148;2022-07-12T12:15:50;2.72;;;0.55;;
28311;SDS011;15572;48.810;9.148;2022-07-12T12:20:56;0.50;;;0.45;;
28311;SDS011;15572;48.810;9.148;2022-07-12T12:26:07;0.60;;;0.50;;
28311;SDS011;15572;48.810;9.148;2022-07-12T12:31:08;1.38;;;0.60;;
28311;SDS011;15572;48.810;9.148;2022-07-12T12:36:18;1.95;;;0.63;;
28311;SDS011;15572;48.810;9.148;2022-07-12T12:41:17;0.60;;;0.60;;
28311;SDS011;15572;48.810;9.148;2022-07-12T12:46:17;0.50;;;0.50;;
28311;SDS011;15572;48.810;9.148;2022-07-12T12:51:14;0.73;;;0.60;;
28311;SDS011;15572;48.810;9.148;2022-07-12T12:56:13;2.20;;;0.40;;
28311;SDS011;15572;48.810;9.148;2022-07-12T13:01:10;0.90;;;0.50;;
28311;SDS011;15572;48.810;9.148;2022-07-12T13:06:06;0.57;;;0.40;;
28311;SDS011;15572;48.810;9.148;2022-07-12T13:11:03;0.52;;;0.52;;
28311;SDS011;15572;48.810;9.148;2022-07-12T13:16:18;3.40;;;1.00;;
28311;SDS011;15572;48.810;9.148;2022-07-12T13:21:15;2.70;;;1.00;;
28311;SDS011;15572;48.810;9.148;2022-07-12T13:26:13;2.22;;;1.00;;
28311;SDS011;15572;48.810;9.148;2022-07-12T13:31:09;0.50;;;0.45;;
28311;SDS011;15572;48.810;9.148;2022-07-12T13:36:07;0.40;;;0.40;;
28311;SDS011;15572;48.810;9.148;2022-07-12T13:41:04;1.17;;;0.40;;
28311;SDS011;15572;48.810;9.148;2022-07-12T13:46:01;2.60;;;0.45;;
28311;SDS011;15572;48.810;9.148;2022-07-12T13:50:57;2.15;;;0.50;;
28311;SDS011;15572;48.810;9.148;2022-07-12T13:55:55;3.15;;;0.60;;
28311;SDS011;15572;48.810;9.148;2022-07-12T14:00:51;10.45;;;1.10;;
28311;SDS011;15572;48.810;9.148;2022-07-12T14:05:49;1.13;;;0.45;;
28311;SDS011;15572;48.810;9.148;2022-07-12T14:10:46;0.88;;;0.70;;
28311;SDS011;15572;48.810;9.148;2022-07-12T14:15:44;0.70;;;0.55;;
28311;SDS011;15572;48.810;9.148;2022-07-12T14:20:40;0.60;;;0.47;;
28311;SDS011;15572;48.810;9.148;2022-07-12T14:25:40;1.13;;;0.70;;
28311;SDS011;15572;48.810;9.148;2022-07-12T14:30:36;1.15;;;0.70;;
28311;SDS011;15572;48.810;9.148;2022-07-12T14:35:34;0.65;;;0.60;;
28311;SDS011;15572;48.810;9.148;2022-07-12T14:40:30;1.30;;;0.60;;
28311;SDS011;15572;48.810;9.148;2022-07-12T14:45:27;0.60;;;0.60;;
28311;SDS011;15572;48.810;9.148;2022-07-12T14:50:24;2.22;;;0.73;;
28311;SDS011;15572;48.810;9.148;2022-07-12T14:55:21;0.80;;;0.65;;
28311;SDS011;15572;48.810;9.148;2022-07-12T15:00:18;2.25;;;1.27;;
28311;SDS011;15572;48.810;9.148;2022-07-12T15:05:15;3.22;;;1.00;;
28311;SDS011;15572;48.810;9.148;2022-07-12T15:10:11;1.63;;;0.90;;
28311;SDS011;15572;48.810;9.148;2022-07-12T15:15:09;3.27;;;1.10;;
28311;SDS011;15572;48.810;9.148;2022-07-12T15:20:06;1.83;;;0.52;;
28311;SDS011;15572;48.810;9.148;2022-07-12T15:25:04;2.15;;;0.40;;
28311;SDS011;15572;48.810;9.148;2022-07-12T15:30:02;1.42;;;0.70;;
28311;SDS011;15572;48.810;9.148;2022-07-12T15:35:00;1.98;;;0.60;;
28311;SDS011;15572;48.810;9.148;2022-07-12T15:39:56;1.13;;;0.52;;
28311;SDS011;15572;48.810;9.148;2022-07-12T15:44:53;1.00;;;0.60;;
28311;SDS011;15572;48.810;9.148;2022-07-12T15:49:49;4.65;;;1.00;;
28311;SDS011;15572;48.810;9.148;2022-07-12T15:54:47;5.72;;;1.80;;
28311;SDS011;15572;48.810;9.148;2022-07-12T15:59:44;1.38;;;0.75;;
28311;SDS011;15572;48.810;9.148;2022-07-12T16:04:40;2.13;;;0.60;;
28311;SDS011;15572;48.810;9.148;2022-07-12T16:09:37;0.50;;;0.50;;
28311;SDS011;15572;48.810;9.148;2022-07-12T16:14:35;1.65;;;0.50;;
28311;SDS011;15572;48.810;9.148;2022-07-12T16:19:31;3.97;;;0.80;;
28311;SDS011;15572;48.810;9.148;2022-07-12T16:24:27;0.70;;;0.70;;
28311;SDS011;15572;48.810;9.148;2022-07-12T16:29:24;0.70;;;0.70;;
28311;SDS011;15572;48.810;9.148;2022-07-12T16:34:23;1.05;;;0.70;;
28311;SDS011;15572;48.810;9.148;2022-07-12T16:39:19;0.60;;;0.60;;
28311;SDS011;15572;48.810;9.148;2022-07-12T16:44:16;1.63;;;0.55;;
28311;SDS011;15572;48.810;9.148;2022-07-12T16:49:12;1.63;;;0.57;;
28311;SDS011;15572;48.810;9.148;2022-07-12T16:54:10;0.60;;;0.60;;
28311;SDS011;15572;48.810;9.148;2022-07-12T16:59:06;0.68;;;0.63;;
28311;SDS011;15572;48.810;9.148;2022-07-12T17:04:03;2.05;;;0.75;;
28311;SDS011;15572;48.810;9.148;2022-07-12T17:09:00;1.27;;;0.55;;
28311;SDS011;15572;48.810;9.148;2022-07-12T17:13:58;1.95;;;0.60;;
28311;SDS011;15572;48.810;9.148;2022-07-12T17:18:54;1.13;;;0.80;;
28311;SDS011;15572;48.810;9.148;2022-07-12T17:23:56;1.10;;;0.68;;
28311;SDS011;15572;48.810;9.148;2022-07-12T17:28:53;0.52;;;0.50;;
28311;SDS011;15572;48.810;9.148;2022-07-12T17:33:50;1.40;;;0.73;;
28311;SDS011;15572;48.810;9.148;2022-07-12T17:38:48;1.30;;;0.70;;
28311;SDS011;15572;48.810;9.148;2022-07-12T17:43:44;0.60;;;0.60;;
28311;SDS011;15572;48.810;9.148;2022-07-12T17:48:41;1.60;;;0.70;;
28311;SDS011;15572;48.810;9.148;2022-07-12T17:53:38;0.70;;;0.70;;
28311;SDS011;15572;48.810;9.148;2022-07-12T17:58:35;0.68;;;0.68;;
28311;SDS011;15572;48.810;9.148;2022-07-12T18:03:35;1.52;;;0.60;;
28311;SDS011;15572;48.810;9.148;2022-07-12T18:08:32;3.63;;;0.85;;
28311;SDS011;15572;48.810;9.148;2022-07-12T18:13:30;2.35;;;0.75;;
28311;SDS011;15572;48.810;9.148;2022-07-12T18:18:44;0.93;;;0.70;;
28311;SDS011;15572;48.810;9.148;2022-07-12T18:23:41;1.30;;;0.73;;
28311;SDS011;15572;48.810;9.148;2022-07-12T18:28:39;1.90;;;0.88;;
28311;SDS011;15572;48.810;9.148;2022-07-12T18:33:35;0.90;;;0.80;;
28311;SDS011;15572;48.810;9.148;2022-07-12T18:38:34;1.38;;;1.02;;
28311;SDS011;15572;48.810;9.148;2022-07-12T18:43:30;8.98;;;0.82;;
28311;SDS011;15572;48.810;9.148;2022-07-12T18:48:28;3.30;;;0.93;;
28311;SDS011;15572;48.810;9.148;2022-07-12T18:53:27;1.50;;;1.25;;
28311;SDS011;15572;48.810;9.148;2022-07-12T18:58:23;2.35;;;1.33;;
28311;SDS011;15572;48.810;9.148;2022-07-12T19:03:20;1.63;;;1.38;;
28311;SDS011;15572;48.810;9.148;2022-07-12T19:08:19;2.28;;;1.42;;
28311;SDS011;15572;48.810;9.148;2022-07-12T19:13:16;3.22;;;1.40;;
28311;SDS011;15572;48.810;9.148;2022-07-12T19:18:12;2.50;;;1.20;;
28311;SDS011;15572;48.810;9.148;2022-07-12T19:23:09;2.22;;;1.55;;
28311;SDS011;15572;48.810;9.148;2022-07-12T19:28:07;6.35;;;1.95;;
28311;SDS011;15572;48.810;9.148;2022-07-12T19:33:03;2.30;;;1.30;;
28311;SDS011;15572;48.810;9.148;2022-07-12T19:38:01;3.35;;;1.45;;
28311;SDS011;15572;48.810;9.148;2022-07-12T19:42:57;1.40;;;1.10;;
28311;SDS011;15572;48.810;9.148;2022-07-12T19:47:55;5.57;;;2.03;;
28311;SDS011;15572;48.810;9.148;2022-07-12T19:52:52;6.43;;;1.90;;
28311;SDS011;15572;48.810;9.148;2022-07-12T19:57:48;2.85;;;1.30;;
28311;SDS011;15572;48.810;9.148;2022-07-12T20:02:45;1.33;;;1.13;;
28311;SDS011;15572;48.810;9.148;2022-07-12T20:07:44;0.80;;;0.80;;
28311;SDS011;15572;48.810;9.148;2022-07-12T20:12:40;1.33;;;1.23;;
28311;SDS011;15572;48.810;9.148;2022-07-12T20:17:37;2.55;;;1.50;;
28311;SDS011;15572;48.810;9.148;2022-07-12T20:22:33;2.55;;;1.40;;
28311;SDS011;15572;48.810;9.148;2022-07-12T20:27:32;2.53;;;1.50;;
28311;SDS011;15572;48.810;9.148;2022-07-12T20:32:29;4.10;;;1.58;;
28311;SDS011;15572;48.810;9.148;2022-07-12T20:37:25;3.30;;;1.58;;
28311;SDS011;15572;48.810;9.148;2022-07-12T20:42:22;4.22;;;1.65;;
28311;SDS011;15572;48.810;9.148;2022-07-12T20:47:20;2.45;;;1.35;;
28311;SDS011;15572;48.810;9.148;2022-07-12T20:52:16;2.55;;;1.65;;
28311;SDS011;15572;48.810;9.148;2022-07-12T20:57:12;2.13;;;1.30;;
28311;SDS011;15572;48.810;9.148;2022-07-12T21:02:09;1.77;;;1.30;;
28311;SDS011;15572;48.810;9.148;2022-07-12T21:07:07;1.88;;;1.40;;
28311;SDS011;15572;48.810;9.148;2022-07-12T21:12:04;4.25;;;1.75;;
28311;SDS011;15572;48.810;9.148;2022-07-12T21:17:01;2.22;;;1.80;;
28311;SDS011;15572;48.810;9.148;2022-07-12T21:21:57;3.80;;;1.50;;
28311;SDS011;15572;48.810;9.148;2022-07-12T21:26:56;1.77;;;1.60;;
28311;SDS011;15572;48.810;9.148;2022-07-12T21:31:52;1.60;;;1.50;;
28311;SDS011;15572;48.810;9.148;2022-07-12T21:36:49;1.90;;;1.70;;
28311;SDS011;15572;48.810;9.148;2022-07-12T21:41:45;1.90;;;1.77;;
28311;SDS011;15572;48.810;9.148;2022-07-12T21:46:43;2.70;;;1.70;;
28311;SDS011;15572;48.810;9.148;2022-07-12T21:51:40;2.28;;;1.65;;
28311;SDS011;15572;48.810;9.148;2022-07-12T21:56:36;2.53;;;1.60;;
28311;SDS011;15572;48.810;9.148;2022-07-12T22:01:32;1.75;;;1.60;;
28311;SDS011;15572;48.810;9.148;2022-07-12T22:06:31;1.27;;;1.15;;
28311;SDS011;15572;48.810;9.148;2022-07-12T22:11:27;1.17;;;1.10;;
28311;SDS011;15572;48.810;9.148;2022-07-12T22:16:24;1.60;;;1.50;;
28311;SDS011;15572;48.810;9.148;2022-07-12T22:21:21;1.90;;;1.70;;
28311;SDS011;15572;48.810;9.148;2022-07-12T22:26:19;1.73;;;1.63;;
28311;SDS011;15572;48.810;9.148;2022-07-12T22:31:16;2.97;;;1.60;;
28311;SDS011;15572;48.810;9.148;2022-07-12T22:36:12;2.05;;;1.83;;
28311;SDS011;15572;48.810;9.148;2022-07-12T22:41:09;1.92;;;1.52;;
28311;SDS011;15572;48.810;9.148;2022-07-12T22:46:07;3.08;;;1.73;;
28311;SDS011;15572;48.810;9.148;2022-07-12T22:51:04;2.80;;;1.70;;
28311;SDS011;15572;48.810;9.148;2022-07-12T22:56:18;1.50;;;1.40;;
28311;SDS011;15572;48.810;9.148;2022-07-12T23:01:16;2.93;;;1.40;;
28311;SDS011;15572;48.810;9.148;2022-07-12T23:06:12;1.73;;;1.60;;
28311;SDS011;15572;48.810;9.148;2022-07-12T23:11:09;1.80;;;1.50;;
28311;SDS011;15572;48.810;9.148;2022-07-12T23:16:05;1.67;;;1.30;;
28311;SDS011;15572;48.810;9.148;2022-07-12T23:21:04;1.30;;;1.10;;
28311;SDS011;15572;48.810;9.148;2022-07-12T23:26:03;1.87;;;1.07;;
28311;SDS011;15572;48.810;9.148;2022-07-12T23:31:00;1.50;;;1.40;;
28311;SDS011;15572;48.810;9.148;2022-07-12T23:35:57;2.03;;;1.50;;
28311;SDS011;15572;48.810;9.148;2022-07-12T23:40:55;2.10;;;1.33;;
28311;SDS011;15572;48.810;9.148;2022-07-12T23:45:51;3.23;;;1.20;;
28311;SDS011;15572;48.810;9.148;2022-07-12T23:50:48;2.97;;;1.53;;
28311;SDS011;15572;48.810;9.148;2022-07-12T23:55:44;2.77;;;1.60;;
